Terminal Aerodrome Forecast
Issued by NWS Quad Cities IA IL

Home | Current Version | Previous Version | Text Only | Print | Product List | Glossary On
Versions: 1 2 3 4 5 6 7 8 9 10 11 12 13 14 15 16 17 18 19 20 21 22 23 24 25 26 27 28 29 30 31 32 33 34 35 36 37
127
FTUS43 KDVN 240520
TAFDBQ
TAF
KDBQ 240520Z 2406/2506 08008KT P6SM SCT012 SCT050
      TEMPO 2409/2413 4SM BR OVC012
     FM241300 12009KT 5SM BR BKN012
     FM241600 15008KT P6SM SCT020 SCT050=

USA.gov is the U.S. government's official web portal to all federal, state and local government web resources and services.